Franklin, Wisconsin
Current Conditions -  °F | °C
As of 6:52 PM on Saturday 20 Dec 2014 (Local Time) from KMKE Reporting Station
Light Snow Light Snow  
Wind Chill: 31°   Ceiling: 3400
Heat Index: 31°   Visibility: 7mi
Dew Point: 23°   Wind: 3mph
Humidity: 72%   Direction: 200°SSW
Pressure: 30.25"   Gusts: NA
Location:  42.9°N, 88.03°W
Report Text: KMKE 210052Z 20003KT 7SM -SN OVC034 M01/M05 A3025 RMK AO2 SNB50 SLP254 P0000 T10061050
Loading
Personal Weather Stations






























Interactive Weather Map New forecast layout! Learn more

10-Day Weather Forecast

Advertisements
Track Severe Weather on mobile